Time;durP1;ratioP1;P1;durP2;ratioP2;P2;SDS_P1;SDS_P2;PMS_P1;PMS_P2;Temp;Humidity;BMP_temperature;BMP_pressure;BME280_temperature;BME280_humidity;BME280_pressure;Samples;Min_cycle;Max_cycle;Signal;HPM_P1;HPM_P2
2022/08/19 00:01:55;;;;;;;48.75;36.88;;;20.00;99.90;;;;;;5082636;28;20059;-76
2022/08/19 00:04:24;;;;;;;43.08;35.42;;;19.90;99.90;;;;;;5081210;28;20016;-76
2022/08/19 00:06:50;;;;;;;45.97;36.92;;;19.70;99.90;;;;;;5085380;28;20032;-76
2022/08/19 00:09:18;;;;;;;45.25;35.67;;;19.50;99.90;;;;;;5073526;28;20021;-76
2022/08/19 00:11:45;;;;;;;40.50;33.97;;;19.60;99.90;;;;;;5085284;28;20024;-77
2022/08/19 00:14:13;;;;;;;43.33;33.15;;;19.40;99.90;;;;;;5091134;28;20024;-77
2022/08/19 00:16:41;;;;;;;40.47;34.90;;;19.50;99.90;;;;;;5079479;28;20029;-77
2022/08/19 00:19:07;;;;;;;41.85;35.67;;;19.50;99.90;;;;;;5087296;28;20551;-77
2022/08/19 00:21:38;;;;;;;45.63;37.50;;;19.40;99.90;;;;;;5091836;28;20118;-77
2022/08/19 00:24:04;;;;;;;46.85;37.53;;;19.40;99.90;;;;;;5093904;28;20556;-77
2022/08/19 00:26:29;;;;;;;44.15;36.30;;;19.30;99.90;;;;;;5081578;28;20107;-77
2022/08/19 00:28:55;;;;;;;39.15;33.90;;;19.30;99.90;;;;;;5084864;28;20491;-77
2022/08/19 00:31:22;;;;;;;38.95;33.13;;;19.50;99.90;;;;;;5093069;28;20020;-77
2022/08/19 00:33:50;;;;;;;38.22;33.83;;;19.60;99.90;;;;;;5095908;28;20016;-77
2022/08/19 00:36:16;;;;;;;42.80;36.00;;;19.80;99.90;;;;;;5088256;28;20385;-77
2022/08/19 00:38:42;;;;;;;37.97;32.55;;;19.80;99.90;;;;;;5084947;28;20283;-77
2022/08/19 00:41:13;;;;;;;39.63;33.90;;;19.80;99.90;;;;;;5090991;28;20028;-77
2022/08/19 00:43:39;;;;;;;41.33;33.67;;;19.80;99.90;;;;;;5087275;28;20023;-78
2022/08/19 00:46:05;;;;;;;39.50;32.83;;;19.90;99.90;;;;;;5089786;28;20527;-77
2022/08/19 00:48:31;;;;;;;38.70;33.67;;;19.80;99.90;;;;;;5092367;28;20036;-77
2022/08/19 00:50:57;;;;;;;45.67;36.38;;;19.80;99.90;;;;;;5096169;28;20394;-77
2022/08/19 00:53:27;;;;;;;41.30;36.28;;;19.60;99.90;;;;;;5094735;28;20047;-77
2022/08/19 00:55:56;;;;;;;45.28;37.33;;;19.40;99.90;;;;;;5095536;28;20058;-77
2022/08/19 00:58:28;;;;;;;50.58;40.90;;;19.50;99.90;;;;;;5086739;28;20024;-77
2022/08/19 01:00:54;;;;;;;48.33;38.40;;;19.10;99.90;;;;;;5079337;28;20024;-77
2022/08/19 01:03:23;;;;;;;45.80;36.88;;;19.20;99.90;;;;;;5075694;28;20012;-77
2022/08/19 01:05:51;;;;;;;43.70;36.42;;;19.30;99.90;;;;;;5078609;28;20051;-78
2022/08/19 01:08:19;;;;;;;53.70;40.88;;;19.50;99.90;;;;;;5095612;28;20474;-78
2022/08/19 01:10:54;;;;;;;52.50;39.38;;;19.60;99.90;;;;;;5081870;28;20016;-75
2022/08/19 01:13:23;;;;;;;48.30;38.60;;;19.60;99.90;;;;;;5086913;28;20523;-75
2022/08/19 01:15:54;;;;;;;50.38;39.28;;;19.50;99.90;;;;;;5090007;28;20413;-75
2022/08/19 01:18:21;;;;;;;51.92;39.95;;;19.40;99.90;;;;;;5089225;28;20017;-76
2022/08/19 01:20:47;;;;;;;49.42;38.60;;;19.50;99.90;;;;;;5089763;28;20089;-75
2022/08/19 01:23:14;;;;;;;48.92;38.10;;;19.40;99.90;;;;;;5088574;28;20020;-75
2022/08/19 01:25:49;;;;;;;46.75;37.80;;;19.40;99.90;;;;;;5082991;28;20036;-75
2022/08/19 01:28:25;;;;;;;54.63;40.13;;;19.40;99.90;;;;;;5084533;28;20420;-76
2022/08/19 01:30:52;;;;;;;59.35;42.97;;;19.50;99.90;;;;;;5075056;28;20048;-78
2022/08/19 01:33:19;;;;;;;66.32;44.50;;;18.90;99.90;;;;;;5093083;28;20099;-78
2022/08/19 01:35:44;;;;;;;53.80;40.60;;;18.80;99.90;;;;;;5090340;28;20027;-78
2022/08/19 01:38:20;;;;;;;51.67;39.95;;;18.90;99.90;;;;;;5084377;28;20020;-77
2022/08/19 01:40:46;;;;;;;;;;;19.20;99.90;;;;;;5092592;28;20016;-77
2022/08/19 01:43:11;;;;;;;76.27;46.17;;;19.10;99.90;;;;;;5089114;28;20262;-77
2022/08/19 01:45:40;;;;;;;69.93;45.17;;;18.90;99.90;;;;;;5091363;28;20558;-77
2022/08/19 01:48:07;;;;;;;74.40;46.28;;;18.70;99.90;;;;;;5082975;28;20521;-77
2022/08/19 01:50:33;;;;;;;73.95;47.63;;;18.80;99.90;;;;;;5093995;28;20040;-78
2022/08/19 01:53:01;;;;;;;67.47;45.53;;;18.80;99.90;;;;;;5087816;28;20497;-78
2022/08/19 01:55:27;;;;;;;74.53;47.08;;;18.80;99.90;;;;;;5089070;28;20020;-78
2022/08/19 01:57:57;;;;;;;68.95;45.70;;;18.70;99.90;;;;;;5087166;28;20061;-78
2022/08/19 02:00:26;;;;;;;74.40;46.22;;;18.80;99.90;;;;;;5093665;28;20024;-78
2022/08/19 02:02:51;;;;;;;75.65;47.65;;;18.70;99.90;;;;;;5086636;28;20046;-78
2022/08/19 02:05:18;;;;;;;76.60;48.70;;;18.70;99.90;;;;;;5090348;28;20016;-78
2022/08/19 02:07:44;;;;;;;66.60;42.92;;;18.70;99.90;;;;;;5090526;28;20020;-77
2022/08/19 02:10:14;;;;;;;69.55;46.33;;;18.90;99.90;;;;;;5089997;28;20016;-77
2022/08/19 02:12:40;;;;;;;61.35;45.78;;;19.10;99.90;;;;;;5091890;28;20400;-77
2022/08/19 02:15:07;;;;;;;59.08;43.63;;;19.00;99.90;;;;;;5088515;28;20480;-77
2022/08/19 02:17:33;;;;;;;58.38;43.78;;;19.00;99.90;;;;;;5086995;28;20058;-77
2022/08/19 02:19:59;;;;;;;62.97;44.38;;;19.10;99.90;;;;;;5092218;28;20443;-77
2022/08/19 02:22:25;;;;;;;55.60;42.22;;;19.20;99.90;;;;;;5084417;28;20087;-78
2022/08/19 02:24:52;;;;;;;52.30;40.90;;;19.20;99.90;;;;;;5094138;28;20058;-78
2022/08/19 02:27:18;;;;;;;60.58;43.45;;;19.40;99.90;;;;;;5086933;28;20107;-78
2022/08/19 02:29:46;;;;;;;67.78;47.03;;;19.50;99.90;;;;;;5094434;28;20478;-78
2022/08/19 02:32:13;;;;;;;50.70;40.17;;;19.50;99.90;;;;;;5093087;28;20024;-78
2022/08/19 02:34:39;;;;;;;54.40;41.55;;;19.30;99.90;;;;;;5092478;28;20050;-77
2022/08/19 02:37:04;;;;;;;44.67;38.50;;;19.60;99.90;;;;;;5082683;28;20027;-78
2022/08/19 02:39:30;;;;;;;51.00;38.83;;;19.70;99.90;;;;;;5091433;28;20031;-79
2022/08/19 02:41:56;;;;;;;50.42;38.67;;;19.70;99.90;;;;;;5090980;28;20024;-78
2022/08/19 02:44:21;;;;;;;60.20;42.08;;;19.80;99.90;;;;;;5092002;28;20016;-79
2022/08/19 02:46:49;;;;;;;50.25;39.25;;;19.80;99.90;;;;;;5090244;28;20550;-79
2022/08/19 02:49:16;;;;;;;50.60;39.03;;;19.60;99.90;;;;;;5091629;28;20016;-77
2022/08/19 02:51:44;;;;;;;51.50;38.65;;;19.70;99.90;;;;;;5094237;28;20051;-77
2022/08/19 02:54:10;;;;;;;60.13;43.13;;;19.70;99.90;;;;;;5092125;28;20091;-78
2022/08/19 02:56:38;;;;;;;53.88;41.08;;;19.60;99.90;;;;;;5088962;28;20020;-78
2022/08/19 02:59:10;;;;;;;48.53;39.22;;;19.70;99.90;;;;;;5083996;28;20020;-76
2022/08/19 03:01:39;;;;;;;53.83;39.92;;;19.60;99.90;;;;;;5087480;28;20071;-76
2022/08/19 03:04:07;;;;;;;60.28;42.58;;;19.60;99.90;;;;;;5094440;28;20021;-78
2022/08/19 03:06:36;;;;;;;61.83;43.63;;;19.70;99.90;;;;;;5089240;28;20363;-78
2022/08/19 03:09:02;;;;;;;51.15;40.55;;;19.60;99.90;;;;;;5090824;28;20021;-78
2022/08/19 03:11:31;;;;;;;53.72;40.22;;;19.60;99.90;;;;;;5086749;28;20371;-78
2022/08/19 03:13:57;;;;;;;58.28;43.05;;;19.70;99.90;;;;;;5087641;28;20066;-76
2022/08/19 03:16:25;;;;;;;72.13;45.58;;;19.50;99.90;;;;;;5080484;28;20478;-76
2022/08/19 03:18:51;;;;;;;52.15;40.63;;;19.30;99.90;;;;;;5086825;28;20510;-75
2022/08/19 03:21:19;;;;;;;50.97;40.33;;;19.40;99.90;;;;;;5085444;28;20154;-76
2022/08/19 03:23:45;;;;;;;56.03;41.67;;;19.60;99.90;;;;;;5079642;28;20017;-76
2022/08/19 03:26:11;;;;;;;48.88;38.70;;;19.80;99.90;;;;;;5084474;28;20481;-77
2022/08/19 03:28:37;;;;;;;60.47;43.03;;;19.70;99.90;;;;;;5089200;28;20025;-77
2022/08/19 03:31:11;;;;;;;50.80;40.53;;;19.90;99.90;;;;;;5087804;28;20032;-76
2022/08/19 03:33:38;;;;;;;51.22;40.72;;;19.90;99.90;;;;;;5092464;28;20539;-78
2022/08/19 03:36:12;;;;;;;53.90;39.38;;;19.70;99.90;;;;;;5090863;28;20023;-77
2022/08/19 03:38:44;;;;;;;52.42;41.22;;;19.70;99.90;;;;;;5085876;28;20033;-78
2022/08/19 03:41:15;;;;;;;68.65;45.00;;;19.40;99.90;;;;;;5083247;28;20111;-78
2022/08/19 03:43:42;;;;;;;59.67;43.35;;;19.70;99.90;;;;;;5089161;22;20045;-74
2022/08/19 03:46:11;;;;;;;56.92;40.42;;;19.80;99.90;;;;;;5030839;28;20029;-73
2022/08/19 03:48:39;;;;;;;65.28;44.80;;;19.90;99.90;;;;;;5028572;28;20021;-74
2022/08/19 03:51:06;;;;;;;66.53;45.35;;;19.80;99.90;;;;;;5019492;28;20600;-73
2022/08/19 03:53:33;;;;;;;73.00;47.80;;;19.70;99.90;;;;;;5024541;28;20052;-73
2022/08/19 03:56:02;;;;;;;66.60;46.53;;;19.40;99.90;;;;;;5031034;28;20696;-72
2022/08/19 03:58:29;;;;;;;68.25;47.53;;;19.20;99.90;;;;;;5025323;28;20048;-75
2022/08/19 04:00:58;;;;;;;62.92;45.75;;;19.30;99.90;;;;;;5023162;28;20468;-73
2022/08/19 04:03:26;;;;;;;57.58;43.08;;;19.50;99.90;;;;;;5019132;28;20018;-74
2022/08/19 04:05:53;;;;;;;64.53;46.30;;;19.50;99.90;;;;;;5028190;28;20056;-75
2022/08/19 04:08:22;;;;;;;58.75;42.55;;;19.50;99.90;;;;;;5030269;28;20067;-74
2022/08/19 04:10:48;;;;;;;51.35;40.33;;;19.40;99.90;;;;;;5032981;28;20503;-74
2022/08/19 04:13:18;;;;;;;50.72;40.53;;;19.40;99.90;;;;;;5033038;28;20364;-75
2022/08/19 04:15:46;;;;;;;59.25;44.13;;;19.50;99.90;;;;;;5018877;28;20169;-74
2022/08/19 04:18:11;;;;;;;75.97;48.00;;;19.40;99.90;;;;;;5014277;28;20088;-76
2022/08/19 04:20:45;;;;;;;45.13;36.90;;;19.40;99.90;;;;;;5014555;28;20034;-76
2022/08/19 04:23:12;;;;;;;55.28;40.63;;;19.30;99.90;;;;;;5024571;28;20051;-76
2022/08/19 04:25:42;;;;;;;57.90;40.50;;;19.20;99.90;;;;;;5034022;28;20113;-76
2022/08/19 04:28:10;;;;;;;50.92;39.63;;;19.20;99.90;;;;;;5023481;28;20134;-76
2022/08/19 04:30:44;;;;;;;50.28;38.05;;;19.20;99.90;;;;;;5017139;28;20029;-76
2022/08/19 04:33:14;;;;;;;48.38;38.70;;;19.20;99.90;;;;;;5033878;28;20029;-76
2022/08/19 04:35:41;;;;;;;47.78;39.05;;;19.50;99.90;;;;;;5032632;28;20490;-75
2022/08/19 04:38:08;;;;;;;41.75;36.33;;;19.40;99.90;;;;;;5032754;28;20033;-75
2022/08/19 04:43:22;;;;;;;57.47;42.72;;;19.50;99.90;;;;;;5027593;28;20045;-74
2022/08/19 04:45:48;;;;;;;56.60;43.45;;;19.60;99.90;;;;;;5024143;28;20021;-74
2022/08/19 04:48:14;;;;;;;58.05;43.85;;;19.50;99.90;;;;;;5023025;28;20472;-77
2022/08/19 04:50:41;;;;;;;62.28;44.45;;;19.40;99.90;;;;;;5033671;28;20120;-75
2022/08/19 04:53:08;;;;;;;50.03;40.08;;;19.50;99.90;;;;;;5029985;28;20072;-76
2022/08/19 04:55:35;;;;;;;52.13;41.38;;;19.50;99.90;;;;;;5023186;28;20431;-75
2022/08/19 04:58:02;;;;;;;58.22;42.47;;;19.50;99.90;;;;;;5032552;28;20598;-75
2022/08/19 05:00:27;;;;;;;62.78;45.00;;;19.70;99.90;;;;;;5023167;28;20022;-74
2022/08/19 05:02:53;;;;;;;58.85;42.92;;;19.60;99.90;;;;;;5026556;28;20388;-76
2022/08/19 05:05:19;;;;;;;58.15;42.70;;;19.70;99.90;;;;;;5020039;28;20026;-76
2022/08/19 05:07:45;;;;;;;55.30;40.85;;;19.70;99.90;;;;;;5030595;28;20017;-73
2022/08/19 05:10:11;;;;;;;57.28;43.38;;;19.70;99.90;;;;;;5034624;28;20036;-73
2022/08/19 05:12:37;;;;;;;47.03;37.63;;;19.80;99.90;;;;;;5020175;28;20017;-73
2022/08/19 05:15:05;;;;;;;53.53;40.88;;;19.90;99.90;;;;;;5023226;28;20160;-74
2022/08/19 05:17:31;;;;;;;51.22;39.67;;;19.90;99.90;;;;;;5030306;28;20112;-74
2022/08/19 05:22:42;;;;;;;51.80;39.78;;;20.00;99.90;;;;;;5026532;28;20065;-74
2022/08/19 05:25:11;;;;;;;54.38;41.05;;;20.00;99.90;;;;;;5026759;28;20025;-73
2022/08/19 05:27:37;;;;;;;53.83;40.83;;;19.90;99.90;;;;;;5013168;28;20049;-74
2022/08/19 05:30:04;;;;;;;53.17;40.13;;;19.80;99.90;;;;;;5026701;28;20647;-75
2022/08/19 05:32:30;;;;;;;51.17;39.75;;;19.80;99.90;;;;;;5020256;28;20032;-73
2022/08/19 05:34:55;;;;;;;59.90;42.88;;;19.80;99.90;;;;;;5019654;28;20108;-75
2022/08/19 05:37:21;;;;;;;58.83;43.05;;;19.60;99.90;;;;;;5026494;28;20104;-74
2022/08/19 05:39:48;;;;;;;53.38;40.50;;;19.70;99.90;;;;;;5030560;28;20112;-75
2022/08/19 05:42:15;;;;;;;51.70;39.60;;;19.60;99.90;;;;;;5033200;28;20431;-74
2022/08/19 05:44:43;;;;;;;53.97;40.30;;;19.70;99.90;;;;;;5028822;28;20457;-74
2022/08/19 05:47:11;;;;;;;50.42;38.80;;;19.60;99.90;;;;;;5022003;28;20022;-75
2022/08/19 05:49:38;;;;;;;50.58;38.22;;;19.70;99.90;;;;;;5020244;28;20026;-75
2022/08/19 05:52:06;;;;;;;48.13;38.22;;;19.70;99.90;;;;;;5025688;28;20403;-75
2022/08/19 05:54:32;;;;;;;52.15;40.40;;;19.70;99.90;;;;;;5013669;28;20479;-75
2022/08/19 05:56:58;;;;;;;53.22;40.03;;;19.70;99.90;;;;;;5024565;28;20247;-75
2022/08/19 05:59:23;;;;;;;54.40;39.53;;;19.70;99.90;;;;;;5026508;28;20025;-74
2022/08/19 06:01:52;;;;;;;51.42;39.88;;;19.80;99.90;;;;;;5027040;28;20017;-75
2022/08/19 06:04:19;;;;;;;50.10;38.10;;;19.70;99.90;;;;;;5029072;28;20108;-74
2022/08/19 06:06:46;;;;;;;56.08;40.53;;;19.90;99.90;;;;;;5020687;28;20021;-74
2022/08/19 06:09:12;;;;;;;54.35;41.60;;;19.50;99.90;;;;;;5018981;28;20022;-75
2022/08/19 06:11:38;;;;;;;58.15;44.08;;;19.80;99.90;;;;;;5032941;28;20025;-74
2022/08/19 06:14:10;;;;;;;61.13;42.35;;;19.80;99.90;;;;;;5017430;28;20033;-74
2022/08/19 06:16:38;;;;;;;56.85;42.42;;;19.70;99.90;;;;;;5022024;28;20120;-76
2022/08/19 06:19:07;;;;;;;64.45;44.38;;;19.50;99.90;;;;;;5015447;28;20028;-75
2022/08/19 06:21:34;;;;;;;61.00;43.80;;;19.30;99.90;;;;;;5023048;28;20456;-75
2022/08/19 06:24:00;;;;;;;62.40;43.53;;;19.60;99.90;;;;;;5014317;28;20022;-75
2022/08/19 06:26:27;;;;;;;59.58;43.50;;;19.70;99.90;;;;;;5012565;28;20388;-75
2022/08/19 06:28:53;;;;;;;63.25;44.30;;;19.40;99.90;;;;;;5025801;28;20627;-75
2022/08/19 06:31:22;;;;;;;51.92;39.60;;;19.60;99.90;;;;;;5023804;28;20037;-75
2022/08/19 06:33:49;;;;;;;62.35;41.88;;;19.70;99.90;;;;;;5017769;28;20435;-75
2022/08/19 06:36:29;;;;;;;61.80;43.08;;;19.90;99.90;;;;;;5020742;28;20053;-75
2022/08/19 06:38:57;;;;;;;62.90;43.92;;;19.70;99.90;;;;;;5019809;28;20075;-75
2022/08/19 06:41:25;;;;;;;62.97;44.08;;;19.80;99.90;;;;;;5018876;28;20541;-75
2022/08/19 06:43:52;;;;;;;57.35;43.00;;;19.90;99.90;;;;;;5025029;28;20066;-75
2022/08/19 06:46:19;;;;;;;55.53;41.38;;;19.80;99.90;;;;;;5025692;28;20116;-76
2022/08/19 06:48:46;;;;;;;64.88;44.35;;;19.80;99.90;;;;;;5010941;28;20396;-75
2022/08/19 06:51:18;;;;;;;64.65;45.83;;;19.90;99.90;;;;;;5026608;28;20029;-75
2022/08/19 06:53:48;;;;;;;77.25;49.13;;;19.90;99.90;;;;;;5022464;28;20025;-75
2022/08/19 06:56:18;;;;;;;83.82;48.78;;;19.70;99.90;;;;;;5025410;28;20120;-75
2022/08/19 06:58:46;;;;;;;74.18;48.38;;;19.60;99.90;;;;;;5021733;28;20052;-74
2022/08/19 07:01:12;;;;;;;82.15;50.33;;;19.60;99.90;;;;;;5018685;28;20053;-75
2022/08/19 07:03:39;;;;;;;54.60;41.70;;;19.70;99.90;;;;;;5021830;28;20022;-75
2022/08/19 07:06:11;;;;;;;61.03;42.88;;;19.80;99.90;;;;;;5015062;28;20079;-75
2022/08/19 07:08:40;;;;;;;54.67;40.92;;;20.00;99.90;;;;;;5030207;28;20140;-75
2022/08/19 07:11:09;;;;;;;59.15;42.90;;;20.00;99.90;;;;;;5018338;28;20024;-75
2022/08/19 07:13:36;;;;;;;55.25;41.05;;;20.00;99.90;;;;;;5020389;28;20061;-75
2022/08/19 07:16:11;;;;;;;57.60;42.92;;;19.90;99.90;;;;;;5024052;28;20112;-75
2022/08/19 07:18:38;;;;;;;50.60;39.83;;;20.00;99.90;;;;;;5024666;28;20037;-75
2022/08/19 07:21:22;;;;;;;54.75;42.45;;;19.90;99.90;;;;;;5024385;28;20084;-75
2022/08/19 07:23:49;;;;;;;59.08;42.40;;;20.00;99.90;;;;;;5025843;28;20114;-76
2022/08/19 07:26:31;;;;;;;53.40;41.92;;;20.00;99.90;;;;;;5030748;28;20025;-76
2022/08/19 07:28:58;;;;;;;50.85;38.75;;;19.90;99.90;;;;;;5017461;28;20024;-75
2022/08/19 07:31:26;;;;;;;48.85;37.13;;;19.80;99.90;;;;;;5020575;28;20383;-76
2022/08/19 07:33:56;;;;;;;58.10;42.13;;;19.90;99.90;;;;;;5029760;28;20022;-75
2022/08/19 07:36:28;;;;;;;57.00;42.15;;;19.70;99.90;;;;;;5022180;28;20117;-76
2022/08/19 07:38:54;;;;;;;54.80;41.50;;;19.80;99.90;;;;;;5035182;28;20104;-76
2022/08/19 07:41:24;;;;;;;47.45;37.53;;;19.70;99.90;;;;;;5022018;28;20030;-75
2022/08/19 07:43:51;;;;;;;53.88;40.40;;;20.10;99.90;;;;;;5022345;28;20033;-76
2022/08/19 07:46:20;;;;;;;61.15;43.42;;;20.20;99.90;;;;;;5033778;28;20132;-76
2022/08/19 07:48:46;;;;;;;50.83;39.30;;;20.00;99.90;;;;;;5022792;28;20021;-75
2022/08/19 07:51:15;;;;;;;54.95;40.00;;;20.10;99.90;;;;;;5021478;28;20034;-76
2022/08/19 07:53:41;;;;;;;55.42;41.25;;;19.90;99.90;;;;;;5022859;28;20026;-76
2022/08/19 07:56:07;;;;;;;51.97;40.92;;;19.80;99.90;;;;;;5033602;28;20025;-76
2022/08/19 07:58:36;;;;;;;47.90;38.33;;;19.80;99.90;;;;;;5015852;28;20030;-76
2022/08/19 08:01:05;;;;;;;50.63;38.53;;;19.70;99.90;;;;;;5028382;28;20079;-76
2022/08/19 08:09:11;;;;;;;48.40;37.47;;;20.10;99.90;;;;;;5021591;28;20032;-76
2022/08/19 08:11:49;;;;;;;46.83;35.58;;;20.30;99.90;;;;;;5033670;28;20502;-76
2022/08/19 08:14:28;;;;;;;48.60;37.10;;;20.50;99.90;;;;;;5021504;28;20096;-76
2022/08/19 08:16:53;;;;;;;40.55;33.40;;;20.50;99.90;;;;;;5021558;28;20041;-76
2022/08/19 08:19:22;;;;;;;48.13;35.83;;;20.40;99.90;;;;;;5032786;28;20371;-76
2022/08/19 08:21:49;;;;;;;46.65;35.38;;;20.60;99.90;;;;;;5022502;28;20058;-76
2022/08/19 08:24:15;;;;;;;45.15;34.38;;;20.90;99.90;;;;;;5027752;28;20060;-75
2022/08/19 08:26:43;;;;;;;43.85;33.17;;;20.90;99.90;;;;;;5026634;28;20025;-76
2022/08/19 08:29:12;;;;;;;40.88;31.65;;;21.10;99.90;;;;;;5028756;28;20021;-76
2022/08/19 08:31:40;;;;;;;37.22;30.70;;;21.30;99.90;;;;;;5026887;28;20028;-76
2022/08/19 08:34:06;;;;;;;36.35;30.02;;;21.30;99.90;;;;;;5019722;28;20025;-76
2022/08/19 08:36:34;;;;;;;37.85;30.30;;;21.30;99.90;;;;;;5021474;28;20026;-76
2022/08/19 08:39:00;;;;;;;33.38;28.08;;;21.50;99.90;;;;;;5033956;28;20034;-76
2022/08/19 08:42:05;;;;;;;38.88;30.92;;;21.40;99.90;;;;;;5020692;28;20036;-76
2022/08/19 08:44:57;;;;;;;37.63;28.95;;;21.70;99.90;;;;;;5020233;28;20487;-76
2022/08/19 08:47:25;;;;;;;35.40;28.98;;;21.70;99.90;;;;;;5023591;28;20021;-76
2022/08/19 08:49:59;;;;;;;37.50;27.52;;;21.00;99.90;;;;;;5020717;28;20025;-75
2022/08/19 08:52:36;;;;;;;37.28;28.52;;;21.10;99.90;;;;;;5021551;28;20032;-75
2022/08/19 08:55:27;;;;;;;34.22;27.98;;;21.30;99.90;;;;;;5027275;28;20026;-74
2022/08/19 08:58:01;;;;;;;36.65;28.65;;;21.00;99.90;;;;;;5027489;28;20060;-74
2022/08/19 09:00:33;;;;;;;32.50;28.17;;;20.90;99.90;;;;;;5024939;28;20117;-74
2022/08/19 09:03:03;;;;;;;31.42;25.88;;;20.90;99.90;;;;;;5019003;28;20029;-74
2022/08/19 09:05:57;;;;;;;29.67;25.27;;;21.20;99.90;;;;;;5033673;28;20029;-73
2022/08/19 09:08:40;;;;;;;30.83;26.02;;;21.60;99.90;;;;;;5022769;28;20039;-74
2022/08/19 09:11:15;;;;;;;29.27;25.33;;;21.50;99.90;;;;;;5020294;28;20499;-74
2022/08/19 09:14:00;;;;;;;33.55;27.45;;;21.40;99.90;;;;;;5020153;28;20037;-73
2022/08/19 09:16:27;;;;;;;29.20;24.48;;;21.20;99.90;;;;;;5022978;28;20092;-74
2022/08/19 09:18:57;;;;;;;29.67;23.45;;;21.00;99.90;;;;;;5017209;28;21483;-73
2022/08/19 09:21:24;;;;;;;29.48;23.60;;;20.90;99.90;;;;;;5023480;28;20025;-73
2022/08/19 09:23:51;;;;;;;28.50;23.77;;;21.10;99.90;;;;;;5018493;28;20035;-73
2022/08/19 09:26:20;;;;;;;26.42;23.50;;;20.80;99.90;;;;;;5023046;28;20426;-74
2022/08/19 09:28:47;;;;;;;27.48;22.70;;;20.80;99.90;;;;;;5026428;28;20022;-73
2022/08/19 09:31:18;;;;;;;26.63;22.92;;;21.10;99.90;;;;;;5024095;28;20017;-73
2022/08/19 09:33:44;;;;;;;26.10;22.08;;;21.10;99.90;;;;;;5019772;28;20021;-74
2022/08/19 09:36:12;;;;;;;25.20;22.15;;;21.30;99.90;;;;;;5021333;28;20029;-73
2022/08/19 09:38:40;;;;;;;25.83;22.95;;;21.30;99.90;;;;;;5026252;28;20026;-73
2022/08/19 09:41:08;;;;;;;28.10;23.35;;;21.30;99.90;;;;;;5024335;28;20025;-73
2022/08/19 09:43:36;;;;;;;26.33;23.23;;;21.40;99.90;;;;;;5039068;23;20054;-77
2022/08/19 09:46:05;;;;;;;25.10;21.65;;;21.60;99.90;;;;;;5030365;28;20021;-77
2022/08/19 09:48:31;;;;;;;24.90;22.30;;;21.40;99.90;;;;;;5031280;28;20036;-77
2022/08/19 09:51:04;;;;;;;28.05;23.55;;;21.20;99.90;;;;;;5032794;28;20071;-74
2022/08/19 09:53:29;;;;;;;26.75;22.10;;;21.20;99.90;;;;;;5013538;28;20080;-74
2022/08/19 09:55:55;;;;;;;23.90;21.13;;;21.20;99.90;;;;;;5025260;28;20022;-74
2022/08/19 09:58:22;;;;;;;25.08;22.38;;;21.40;99.90;;;;;;5017834;28;20056;-74
2022/08/19 10:00:48;;;;;;;26.33;23.60;;;21.40;99.90;;;;;;5019731;28;20029;-74
2022/08/19 10:03:13;;;;;;;24.15;21.63;;;21.40;99.90;;;;;;5025760;28;20034;-74
2022/08/19 10:05:48;;;;;;;29.42;23.00;;;21.60;99.90;;;;;;5025615;28;20101;-74
2022/08/19 10:08:14;;;;;;;25.17;22.48;;;21.70;99.90;;;;;;5019905;28;20021;-74
2022/08/19 10:10:44;;;;;;;25.80;22.17;;;21.30;99.90;;;;;;5019050;28;20028;-74
2022/08/19 10:13:10;;;;;;;25.85;23.13;;;21.10;99.90;;;;;;5024567;28;20022;-74
2022/08/19 10:15:39;;;;;;;25.27;22.00;;;21.10;99.90;;;;;;5025592;28;20517;-75
2022/08/19 10:18:05;;;;;;;25.77;22.92;;;21.10;99.90;;;;;;5020452;28;20032;-74
2022/08/19 10:20:31;;;;;;;29.27;23.85;;;21.10;99.90;;;;;;5026007;28;20065;-73
2022/08/19 10:22:59;;;;;;;29.45;23.70;;;21.10;99.90;;;;;;5026928;28;20029;-75
2022/08/19 10:25:26;;;;;;;30.65;24.80;;;21.10;99.90;;;;;;5034537;28;20048;-75
2022/08/19 10:27:52;;;;;;;28.02;24.35;;;21.10;99.90;;;;;;5020650;28;20029;-75
2022/08/19 10:30:18;;;;;;;27.00;24.10;;;20.80;99.90;;;;;;5036694;28;20080;-75
2022/08/19 10:32:45;;;;;;;28.73;24.77;;;21.20;99.90;;;;;;5042602;28;20395;-76
2022/08/19 10:35:12;;;;;;;29.98;25.73;;;21.40;99.90;;;;;;5016746;28;20225;-74
2022/08/19 10:37:38;;;;;;;35.03;25.70;;;21.50;99.90;;;;;;5012038;28;20022;-74
2022/08/19 10:40:07;;;;;;;28.90;25.77;;;21.50;99.90;;;;;;5014862;28;20034;-74
2022/08/19 10:42:34;;;;;;;34.03;26.83;;;21.60;99.90;;;;;;5020640;28;20030;-73
2022/08/19 10:45:00;;;;;;;29.77;26.10;;;21.40;99.90;;;;;;5033630;28;20024;-73
2022/08/19 10:47:25;;;;;;;37.05;28.63;;;21.30;99.90;;;;;;5037406;28;20021;-73
2022/08/19 10:52:42;;;;;;;35.28;29.08;;;21.20;99.90;;;;;;5019134;28;20044;-74
2022/08/19 10:57:52;;;;;;;33.92;27.92;;;21.40;99.90;;;;;;5018396;28;20048;-74
2022/08/19 11:00:19;;;;;;;28.77;25.70;;;21.60;99.90;;;;;;5022450;28;20507;-74
2022/08/19 11:02:45;;;;;;;32.60;27.20;;;21.60;99.90;;;;;;5024966;28;20026;-74
2022/08/19 11:05:12;;;;;;;28.05;25.08;;;21.90;99.90;;;;;;5021039;28;20021;-74
2022/08/19 11:07:39;;;;;;;30.25;27.02;;;21.90;99.90;;;;;;5036808;28;20025;-77
2022/08/19 11:10:06;;;;;;;32.70;26.00;;;21.80;99.90;;;;;;5037480;28;20018;-75
2022/08/19 11:12:32;;;;;;;32.85;25.27;;;21.90;99.90;;;;;;5043959;28;20029;-74
2022/08/19 11:14:58;;;;;;;31.55;23.35;;;22.10;99.90;;;;;;5037205;28;20472;-74
2022/08/19 11:17:24;;;;;;;29.33;23.73;;;22.20;99.90;;;;;;5040818;28;20030;-74
2022/08/19 11:19:49;;;;;;;26.73;23.90;;;22.20;99.90;;;;;;5037039;28;20487;-75
2022/08/19 11:22:16;;;;;;;25.58;22.42;;;22.10;99.90;;;;;;5049621;28;20025;-74
2022/08/19 11:24:42;;;;;;;24.83;22.08;;;22.20;99.90;;;;;;5046443;28;20561;-75
2022/08/19 11:27:09;;;;;;;24.52;21.73;;;22.30;99.90;;;;;;5044626;28;20530;-75
2022/08/19 11:29:37;;;;;;;28.42;22.98;;;22.20;99.90;;;;;;5051459;28;20028;-74
2022/08/19 11:32:09;;;;;;;26.40;23.63;;;22.20;99.90;;;;;;5046895;28;20025;-75
2022/08/19 11:34:35;;;;;;;26.23;22.75;;;22.00;99.90;;;;;;5050155;28;20501;-76
2022/08/19 11:37:03;;;;;;;26.33;23.42;;;22.10;99.90;;;;;;5031243;28;20025;-75
2022/08/19 11:39:30;;;;;;;25.33;22.17;;;21.90;99.90;;;;;;5049205;28;20097;-75
2022/08/19 11:41:58;;;;;;;25.90;23.08;;;22.00;99.90;;;;;;5044451;28;20091;-74
2022/08/19 11:44:24;;;;;;;28.45;23.92;;;22.00;99.90;;;;;;5031445;28;20049;-75
2022/08/19 11:46:49;;;;;;;27.75;24.75;;;22.00;99.90;;;;;;5032134;28;20134;-74
2022/08/19 11:49:19;;;;;;;28.60;24.42;;;21.80;99.90;;;;;;5034820;28;20426;-75
2022/08/19 11:51:46;;;;;;;31.10;25.02;;;21.80;99.90;;;;;;5035287;28;20044;-74
2022/08/19 11:54:13;;;;;;;28.35;23.80;;;21.80;99.90;;;;;;5048214;28;20025;-74
2022/08/19 11:56:40;;;;;;;28.65;24.15;;;21.90;99.90;;;;;;5050059;28;20115;-74
2022/08/19 11:59:07;;;;;;;26.30;23.50;;;21.90;99.90;;;;;;5046144;28;20100;-74
2022/08/19 12:01:33;;;;;;;25.42;22.80;;;22.10;99.90;;;;;;5039474;28;20383;-74
2022/08/19 12:03:59;;;;;;;27.27;22.58;;;22.10;99.90;;;;;;5045904;28;20029;-75
2022/08/19 12:06:31;;;;;;;25.42;22.80;;;22.30;99.90;;;;;;5036537;28;20285;-74
2022/08/19 12:08:58;;;;;;;26.45;23.65;;;22.10;99.90;;;;;;5039153;28;20013;-74
2022/08/19 12:11:25;;;;;;;29.92;26.73;;;22.00;99.90;;;;;;5046398;28;20031;-74
2022/08/19 12:13:52;;;;;;;32.25;27.40;;;21.90;99.90;;;;;;5021211;28;20041;-74
2022/08/19 12:16:26;;;;;;;32.55;27.70;;;21.80;99.90;;;;;;5027610;28;20033;-74
2022/08/19 12:18:54;;;;;;;31.15;27.35;;;21.80;99.90;;;;;;5027424;28;20518;-74
2022/08/19 12:21:24;;;;;;;33.80;28.58;;;21.80;99.90;;;;;;5022535;28;20112;-74
2022/08/19 12:23:51;;;;;;;28.02;25.02;;;21.90;99.90;;;;;;5019583;28;20026;-74
2022/08/19 12:26:17;;;;;;;25.00;21.13;;;21.90;99.90;;;;;;5048249;28;20022;-74
2022/08/19 12:28:44;;;;;;;23.45;21.05;;;21.70;99.90;;;;;;5047224;28;20503;-74
2022/08/19 12:31:11;;;;;;;21.48;18.83;;;21.60;99.90;;;;;;5025160;28;20026;-74
2022/08/19 12:33:38;;;;;;;22.67;20.38;;;21.20;99.90;;;;;;5032301;28;20014;-74
2022/08/19 12:36:07;;;;;;;22.17;19.75;;;21.20;99.90;;;;;;5035358;28;20467;-74
2022/08/19 12:38:34;;;;;;;22.50;19.92;;;21.20;99.90;;;;;;5032125;28;20029;-74
2022/08/19 12:41:00;;;;;;;24.58;20.88;;;21.30;99.90;;;;;;5038795;28;20056;-74
2022/08/19 12:43:26;;;;;;;21.90;19.58;;;21.30;99.90;;;;;;5042564;28;20038;-75
2022/08/19 12:45:51;;;;;;;20.33;18.15;;;21.40;99.90;;;;;;5023332;28;20072;-74
2022/08/19 12:48:18;;;;;;;18.55;16.67;;;21.40;99.90;;;;;;5024219;28;20395;-75
2022/08/19 12:50:45;;;;;;;19.55;16.83;;;21.20;99.90;;;;;;5024487;28;20422;-74